Latest Weather Observations for Double Island Point

IDQ60801

Issued at 2:35 pm EST Tuesday 29 July 2014 (issued every 30 minutes, with the page automatically refreshed every 10 minutes)

About weather observations | Map of weather stations | Latest weather observations for QLD | Other Formats
Station Details ID: 040068 Name: DOUBLE ISLAND POINT LIGHTHOUSE Lat: -25.93 Lon: 153.19 Height: 95.64 m
Data from the previous 72 hours. | See also: Recent months at Double Island Point
Date/Time
EST
Temp
°C
App
Temp
°C
Dew
Point
Rel
Hum
%
Delta-T
°C
Wind Press
QNH
hPa
Press
MSL
hPa
Rain
since 9 am
mm
Dir
 
Spd
km/h
Gust
km/h
Spd
kts
Gust
kts
29/02:30pm 22.6 19.3 11.7 50 6.1 N 20 30 11 16 1019.6 - 0.0
29/02:00pm 23.2 20.9 11.6 48 6.5 N 15 24 8 13 1019.8 1019.7 0.0
29/01:30pm 23.7 22.1 11.4 46 6.9 N 11 17 6 9 1020.4 - 0.0
29/01:00pm 24.5 23.2 12.5 47 6.9 N 11 17 6 9 1020.7 1020.6 0.0
29/12:30pm 23.8 20.9 12.4 48 6.5 NNW 19 22 10 12 1021.1 - 0.0
29/12:00pm 22.0 17.6 11.7 52 5.8 NNW 26 33 14 18 1021.6 1021.5 0.0
29/11:30am 21.1 17.3 12.3 57 5.0 NW 24 32 13 17 1022.3 - 0.0
29/11:00am 19.8 15.4 11.6 59 4.5 NW 26 33 14 18 1022.7 1022.6 0.0
29/10:30am 19.1 15.1 11.9 63 4.0 NW 24 30 13 16 1022.9 - 0.0
29/10:00am 17.9 13.4 11.5 66 3.5 NW 26 30 14 16 1023.1 1023.0 0.0
29/09:30am 17.6 12.7 11.4 67 3.4 NW 28 35 15 19 1023.2 - 0.0
29/09:00am 17.0 12.1 11.3 69 3.1 NW 28 33 15 18 1023.3 1023.2 0.0
29/08:30am 16.9 11.9 11.0 68 3.2 NW 28 33 15 18 1023.2 - 0.0
29/08:00am 16.7 12.0 10.8 68 3.2 NW 26 32 14 17 1023.0 1022.9 0.0
29/07:30am 16.4 11.6 10.3 67 3.2 NW 26 30 14 16 1022.8 - 0.0
29/07:00am 16.0 10.8 10.1 68 3.1 NW 28 32 15 17 1022.6 1022.5 0.0
29/06:30am 15.8 10.8 9.5 66 3.3 NW 26 30 14 16 1022.2 - 0.0
29/06:00am 16.2 11.0 8.9 62 3.8 NW 26 28 14 15 1021.8 1021.7 0.0
29/05:30am 16.3 12.2 8.8 61 3.9 WNW 20 24 11 13 1021.5 - 0.0
29/05:00am 16.3 12.2 8.8 61 3.8 WNW 20 24 11 13 1021.3 1021.2 0.0
29/04:30am 16.5 12.1 10.4 67 3.2 WNW 24 30 13 16 1021.1 - 0.0
29/04:00am 16.7 12.2 9.9 64 3.6 WNW 24 28 13 15 1021.0 1020.9 0.0
29/03:30am 16.8 12.5 10.9 68 3.2 WNW 24 28 13 15 1021.0 - 0.0
29/03:00am 16.9 12.5 10.3 65 3.5 WNW 24 28 13 15 1021.0 1020.9 0.0
29/02:30am 17.0 13.4 10.4 65 3.5 WNW 20 24 11 13 1021.1 - 0.0
29/02:00am 17.0 13.2 11.1 68 3.2 WNW 22 24 12 13 1021.2 1021.1 0.0
29/01:30am 17.0 13.9 11.5 70 3.0 W 19 22 10 12 1021.4 - 0.0
29/01:00am 17.0 13.6 11.1 68 3.2 WNW 20 22 11 12 1021.5 1021.4 0.0
29/12:30am 17.4 14.7 11.7 69 3.1 WNW 17 19 9 10 1021.9 - 0.0
29/12:00am 17.5 14.9 12.0 70 3.0 WNW 17 19 9 10 1022.0 1021.9 0.0
 
Date/Time
EST
Temp
°C
App
Temp
°C
Dew
Point
Rel
Hum
%
Delta-T
°C
Wind Press
QNH
hPa
Press
MSL
hPa
Rain
since 9 am
mm
Dir
 
Spd
km/h
Gust
km/h
Spd
kts
Gust
kts
28/11:30pm 17.6 14.9 11.8 69 3.2 NW 17 19 9 10 1022.1 - 0.0
28/11:00pm 17.8 16.6 10.4 62 4.0 N 7 15 4 8 1022.1 1022.0 0.0
28/10:30pm 17.9 16.7 10.3 61 4.1 N 7 13 4 7 1022.2 - 0.0
28/10:00pm 18.1 16.2 10.5 61 4.1 N 11 17 6 9 1022.3 1022.2 0.0
28/09:30pm 18.1 16.6 10.5 61 4.1 N 9 17 5 9 1022.2 - 0.0
28/09:00pm 18.1 15.7 10.2 60 4.2 N 13 22 7 12 1022.0 1021.9 0.0
28/08:30pm 18.3 14.2 10.2 59 4.3 NNE 22 26 12 14 1021.8 - 0.0
28/08:00pm 18.2 14.5 10.1 59 4.3 NNE 20 26 11 14 1021.6 1021.5 0.0
28/07:30pm 18.0 14.9 10.4 61 4.1 NNE 17 24 9 13 1021.6 - 0.0
28/07:00pm 18.0 15.7 10.4 61 4.1 NNE 13 20 7 11 1021.5 1021.4 0.0
28/06:30pm 18.2 15.7 9.8 58 4.5 NE 13 20 7 11 1021.1 - 0.0
28/06:00pm 18.4 16.1 10.3 59 4.3 NE 13 19 7 10 1020.9 1020.8 0.0
28/05:30pm 18.6 15.7 9.7 56 4.7 ENE 15 19 8 10 1020.8 - 0.0
28/05:00pm 19.4 17.0 9.9 54 5.1 NE 13 17 7 9 1020.8 1020.7 0.0
28/04:30pm 19.9 17.3 9.5 51 5.5 NE 13 17 7 9 1020.6 - 0.0
28/04:00pm 20.5 18.5 10.3 52 5.5 NE 11 17 6 9 1020.5 1020.4 0.0
28/03:30pm 20.1 17.4 10.5 54 5.2 NE 15 20 8 11 1020.5 - 0.0
28/03:00pm 21.5 20.1 10.9 51 5.8 NNE 9 17 5 9 1020.4 1020.3 0.0
28/02:30pm 21.8 20.3 11.8 53 5.6 NE 11 17 6 9 1020.5 - 0.0
28/02:00pm 21.7 20.4 11.1 51 5.9 NNE 9 13 5 7 1020.9 1020.8 0.0
28/01:30pm 23.4 22.0 12.1 49 6.4 NNE 11 17 6 9 1021.2 - 0.0
28/01:00pm 23.2 21.8 12.2 50 6.2 NNE 11 17 6 9 1021.6 1021.5 0.0
28/12:30pm 23.3 22.8 13.8 55 5.6 N 9 13 5 7 1022.1 - 0.0
28/12:00pm 22.7 22.7 14.3 59 4.9 N 7 11 4 6 1022.7 1022.6 0.0
28/11:30am 20.0 19.6 13.0 64 4.0 E 7 9 4 5 1023.2 - 0.0
28/11:00am 19.3 18.2 13.2 68 3.5 SE 11 15 6 8 1023.5 1023.4 0.0
28/10:30am 19.1 18.1 13.5 70 3.2 SSE 11 17 6 9 1023.8 - 0.0
28/10:00am 18.5 17.1 13.4 72 2.9 S 13 17 7 9 1024.1 1024.0 0.0
28/09:30am 17.8 16.2 12.7 72 2.9 S 13 17 7 9 1024.1 - 0.0
28/09:00am 17.6 15.6 12.7 73 2.7 S 15 17 8 9 1024.1 1024.0 0.0
28/08:30am 17.1 14.6 12.4 74 2.6 S 17 20 9 11 1023.9 - 0.0
28/08:00am 16.8 13.7 12.3 75 2.5 S 20 24 11 13 1023.8 1023.7 0.0
28/07:30am 16.1 12.4 11.5 74 2.5 S 22 24 12 13 1023.6 - 0.0
28/07:00am 15.6 11.4 11.0 74 2.5 S 24 26 13 14 1023.3 1023.2 0.0
28/06:30am 15.5 11.2 10.9 74 2.5 S 24 26 13 14 1023.0 - 0.0
28/06:00am 15.6 11.8 11.2 75 2.4 S 22 26 12 14 1022.8 1022.7 0.0
28/05:30am 15.8 11.6 11.2 74 2.5 S 24 26 13 14 1022.4 - 0.0
28/05:00am 15.7 11.5 11.1 74 2.5 S 24 26 13 14 1022.1 1022.0 0.0
28/04:30am 15.8 12.4 11.2 74 2.5 S 20 22 11 12 1022.0 - 0.0
28/04:00am 15.8 12.5 11.0 73 2.6 S 19 22 10 12 1021.9 1021.8 0.0
28/03:30am 15.8 12.6 11.4 75 2.4 S 19 20 10 11 1021.9 - 0.0
28/03:00am 15.9 12.8 11.5 75 2.4 S 19 20 10 11 1022.0 1021.9 0.0
28/02:30am 16.0 12.8 11.4 74 2.5 S 19 20 10 11 1022.0 - 0.0
28/02:00am 16.4 13.7 11.6 73 2.6 S 17 20 9 11 1022.2 1022.1 0.0
28/01:30am 17.2 14.7 11.0 67 3.4 SSE 15 19 8 10 1022.6 - 0.0
28/01:00am 17.7 15.4 10.6 63 3.8 ESE 13 17 7 9 1022.9 1022.8 0.0
28/12:30am 17.8 14.7 10.4 62 4.0 ESE 17 19 9 10 1022.8 - 0.0
28/12:00am 17.8 14.8 10.7 63 3.8 ESE 17 20 9 11 1022.7 1022.6 0.0
 
Date/Time
EST
Temp
°C
App
Temp
°C
Dew
Point
Rel
Hum
%
Delta-T
°C
Wind Press
QNH
hPa
Press
MSL
hPa
Rain
since 9 am
mm
Dir
 
Spd
km/h
Gust
km/h
Spd
kts
Gust
kts
27/11:30pm 17.9 14.4 10.8 63 3.8 ESE 20 26 11 14 1022.8 - 0.0
27/11:00pm 17.9 14.1 11.0 64 3.7 E 22 24 12 13 1023.1 1023.0 0.0
27/10:30pm 18.1 13.8 10.7 62 4.0 ESE 24 28 13 15 1023.2 - 0.0
27/10:00pm 18.4 14.2 11.0 62 4.0 ESE 24 30 13 16 1023.1 1023.0 0.0
27/09:30pm 18.4 13.5 11.2 63 3.9 ESE 28 33 15 18 1022.9 - 0.0
27/09:00pm 18.4 12.7 11.0 62 4.0 ESE 32 35 17 19 1022.8 1022.7 0.0
27/08:30pm 18.5 12.6 11.1 62 4.0 ESE 33 39 18 21 1022.8 - 0.0
27/08:00pm 18.5 12.4 10.3 59 4.4 ESE 33 39 18 21 1022.5 1022.4 0.0
27/07:30pm 18.6 12.7 11.2 62 4.0 ESE 33 39 18 21 1022.4 - 0.0
27/07:00pm 18.7 12.6 10.3 58 4.5 ESE 33 39 18 21 1022.3 1022.2 0.0
27/06:30pm 18.6 11.4 9.1 54 5.0 SE 37 41 20 22 1022.0 - 0.0
27/06:00pm 18.6 12.1 10.4 59 4.4 SE 35 37 19 20 1021.7 1021.6 0.0
27/05:30pm 18.6 12.6 10.9 61 4.2 SE 33 37 18 20 1021.2 - 0.0
27/05:00pm 18.7 12.8 10.3 58 4.5 SE 32 35 17 19 1020.9 1020.8 0.0
27/04:30pm 18.9 13.2 11.2 61 4.2 SE 32 35 17 19 1020.7 - 0.0
27/04:00pm 19.2 14.1 10.5 57 4.7 SE 28 32 15 17 1020.8 1020.7 0.0
27/03:30pm 19.3 14.4 9.8 54 5.1 SSE 26 30 14 16 1020.7 - 0.0
27/03:00pm 19.6 15.3 10.6 56 4.9 SE 24 28 13 15 1020.6 1020.5 0.0
27/02:30pm 19.5 14.7 11.8 61 4.3 SE 28 30 15 16 1020.6 - 0.0
27/02:00pm 19.6 14.8 11.6 60 4.4 SE 28 32 15 17 1020.7 1020.6 0.0
27/01:30pm 19.8 15.3 11.3 58 4.7 SE 26 28 14 15 1021.0 - 0.0
27/01:00pm 19.9 15.6 12.2 61 4.3 SE 26 30 14 16 1021.2 1021.1 0.0
27/12:30pm 20.1 16.1 11.8 59 4.6 SSE 24 26 13 14 1021.6 - 0.0
27/12:00pm 20.0 16.0 11.7 59 4.6 SE 24 28 13 15 1022.0 1021.9 0.0
27/11:30am 20.3 16.9 12.5 61 4.4 SSE 22 26 12 14 1022.5 - 0.0
27/11:00am 19.7 16.5 11.2 58 4.7 SSE 19 26 10 14 1023.1 1023.0 0.0
27/10:30am 19.7 16.2 12.2 62 4.2 SSE 22 28 12 15 1023.4 - 0.0
27/10:00am 19.3 15.8 12.1 63 4.0 S 22 28 12 15 1023.6 1023.5 0.0
27/09:30am 19.0 16.0 12.5 66 3.6 S 20 28 11 15 1023.6 - 0.0
27/09:00am 18.9 16.1 13.1 69 3.3 S 20 24 11 13 1023.6 1023.5 0.4
27/08:30am 18.5 16.1 12.7 69 3.3 S 17 22 9 12 1023.5 - 0.4
27/08:00am 18.0 15.2 12.5 70 3.1 SSW 19 26 10 14 1023.3 1023.2 0.4
27/07:30am 17.2 16.0 12.9 76 2.4 SW 11 19 6 10 1023.3 - 0.4
27/07:00am 16.8 17.7 13.9 83 1.6 ESE 2 9 1 5 1023.1 1023.0 0.4
27/06:30am 16.7 14.0 13.4 81 1.9 WNW 20 26 11 14 1022.7 - 0.4
27/06:00am 16.6 14.1 14.2 86 1.4 WNW 20 24 11 13 1022.4 1022.3 0.4
27/05:30am 16.7 14.2 14.2 85 1.4 WNW 20 30 11 16 1022.5 - 0.4
27/05:00am 16.6 14.8 14.4 87 1.3 WNW 17 24 9 13 1022.4 1022.3 0.4
27/04:30am 16.9 16.2 14.4 85 1.4 WNW 11 19 6 10 1022.2 - 0.4
27/04:00am 16.8 14.6 14.4 86 1.4 WNW 19 24 10 13 1022.1 1022.0 0.4
27/03:30am 16.9 14.5 14.5 86 1.4 WNW 20 28 11 15 1022.1 - 0.4
27/03:00am 17.1 14.1 14.7 86 1.4 WNW 24 28 13 15 1022.3 1022.2 0.4
27/02:30am 17.2 15.1 14.8 86 1.4 WNW 19 22 10 12 1022.5 - 0.4
27/02:00am 17.2 15.5 14.7 85 1.4 WNW 17 20 9 11 1022.9 1022.8 0.4
27/01:30am 17.4 15.9 15.2 87 1.3 NW 17 20 9 11 1023.0 - 0.4
27/01:00am 18.0 17.2 16.0 88 1.2 WNW 15 20 8 11 1023.2 1023.1 0.4
27/12:30am 17.8 16.4 15.6 87 1.3 NNW 17 24 9 13 1023.4 - 0.4
27/12:00am 17.8 15.9 15.8 88 1.2 NNW 20 24 11 13 1023.7 1023.6 0.4
 
Date/Time
EST
Temp
°C
App
Temp
°C
Dew
Point
Rel
Hum
%
Delta-T
°C
Wind Press
QNH
hPa
Press
MSL
hPa
Rain
since 9 am
mm
Dir
 
Spd
km/h
Gust
km/h
Spd
kts
Gust
kts
26/11:30pm 18.0 17.1 15.8 87 1.3 NNW 15 17 8 9 1024.0 - 0.4
26/11:00pm 17.9 16.9 15.5 86 1.4 NNW 15 17 8 9 1024.4 1024.2 0.4
26/10:30pm 18.0 17.3 15.4 85 1.5 NW 13 15 7 8 1024.7 - 0.4
26/10:00pm 18.0 18.0 15.3 84 1.6 NW 9 11 5 6 1024.7 1024.5 0.4
26/09:30pm 17.9 17.5 15.2 84 1.6 NW 11 11 6 6 1025.0 - 0.4
26/09:00pm 18.0 17.8 15.6 86 1.4 WNW 11 13 6 7 1025.3 1025.1 0.4
26/08:30pm 17.9 17.7 15.7 87 1.3 W 11 13 6 7 1025.1 - 0.4
26/08:00pm 18.1 18.4 15.9 87 1.3 WNW 9 11 5 6 1025.2 1025.0 0.4
26/07:30pm 18.0 17.8 15.6 86 1.4 NW 11 13 6 7 1025.0 - 0.4
26/07:00pm 18.0 17.4 15.6 86 1.4 NW 13 13 7 7 1024.8 1024.6 0.4
26/06:30pm 18.3 18.9 15.9 86 1.4 W 7 9 4 5 1024.7 - 0.4
26/06:00pm 18.2 18.8 15.8 86 1.4 NW 7 9 4 5 1024.1 1024.0 0.4
26/05:30pm 18.5 19.1 15.9 85 1.5 NNW 7 11 4 6 1023.9 - 0.4
26/05:00pm 18.8 20.4 16.0 84 1.7 N 2 7 1 4 1023.7 1023.6 0.4
26/04:30pm 19.1 20.4 16.1 83 1.8 N 4 15 2 8 1023.8 - 0.2
26/04:00pm 19.1 20.0 16.0 82 1.8 N 6 7 3 4 1024.0 1023.9 0.0
26/03:30pm 19.0 20.2 16.0 83 1.8 SW 4 9 2 5 1024.0 - 0.0
26/03:00pm 19.0 18.9 15.9 82 1.8 S 11 15 6 8 1024.0 1023.9 0.0

Other Formats:

Comma delimited format used in spreadsheet applications
http://www.bom.gov.au/fwo/IDQ60801/IDQ60801.94584.axf

JavaScript Object Notation format (JSON) in row-major order
http://www.bom.gov.au/fwo/IDQ60801/IDQ60801.94584.json